Time;durP1;ratioP1;P1;durP2;ratioP2;P2;SDS_P1;SDS_P2;PMS_P1;PMS_P2;Temp;Humidity;BMP_temperature;BMP_pressure;BME280_temperature;BME280_humidity;BME280_pressure;Samples;Min_cycle;Max_cycle;Signal;HPM_P1;HPM_P2
2021/04/14 00:00:06;;;;;;;27.55;20.32;;;;;;;10.38;85.59;99767.67;1677032;85;21102;-64
2021/04/14 00:02:35;;;;;;;25.75;19.23;;;;;;;10.38;85.57;99762.30;1691811;84;21177;-64
2021/04/14 00:05:09;;;;;;;24.77;19.55;;;;;;;10.43;85.44;99769.91;1694430;83;21423;-65
2021/04/14 00:07:40;;;;;;;32.50;22.75;;;;;;;10.44;85.19;99766.69;1675959;85;21697;-64
2021/04/14 00:10:11;;;;;;;28.62;19.02;;;;;;;10.35;85.16;99769.00;1677220;85;21180;-64
2021/04/14 00:12:39;;;;;;;28.20;20.65;;;;;;;10.30;85.38;99769.44;1676445;85;21188;-62
2021/04/14 00:15:13;;;;;;;24.90;21.02;;;;;;;10.24;85.59;99761.83;1678967;85;21223;-62
2021/04/14 00:17:40;;;;;;;23.92;20.20;;;;;;;10.21;85.80;99757.48;1677618;85;21387;-62
2021/04/14 00:20:10;;;;;;;21.60;17.20;;;;;;;10.21;85.75;99757.48;1649665;86;21073;-61
2021/04/14 00:22:39;;;;;;;21.23;18.15;;;;;;;10.24;85.74;99757.80;1649821;86;21181;-63
2021/04/14 00:25:12;;;;;;;25.95;19.15;;;;;;;10.22;85.64;99759.90;1649790;87;21066;-61
2021/04/14 00:27:39;;;;;;;23.55;18.95;;;;;;;10.19;85.60;99755.55;1664466;85;21184;-67
2021/04/14 00:30:09;;;;;;;26.15;19.15;;;;;;;10.19;85.51;99754.21;1642477;87;22397;-63
2021/04/14 00:32:37;;;;;;;24.82;15.95;;;;;;;10.22;85.47;99753.18;1649714;87;21219;-65
2021/04/14 00:35:07;;;;;;;27.67;20.15;;;;;;;10.25;85.24;99750.02;1651018;86;21238;-62
2021/04/14 00:37:35;;;;;;;25.20;20.25;;;;;;;10.25;85.06;99758.09;1665116;85;21061;-66
2021/04/14 00:40:10;;;;;;;26.20;19.42;;;;;;;10.22;84.85;99755.87;1649051;85;21165;-62
2021/04/14 00:42:38;;;;;;;21.10;16.95;;;;;;;10.24;84.91;99750.26;1648460;87;21208;-65
2021/04/14 00:45:08;;;;;;;21.33;18.67;;;;;;;10.28;84.86;99752.73;1648459;87;21224;-64
2021/04/14 00:47:35;;;;;;;21.57;16.95;;;;;;;10.31;84.74;99757.08;1654674;85;21056;-62
2021/04/14 00:50:08;;;;;;;29.30;19.82;;;;;;;10.26;84.45;99754.87;1674275;85;21627;-64
2021/04/14 00:52:37;;;;;;;24.10;18.25;;;;;;;10.16;84.62;99756.87;1674257;85;21588;-63
2021/04/14 00:55:12;;;;;;;25.92;17.40;;;;;;;10.18;84.83;99756.61;1666522;84;21401;-64
2021/04/14 00:57:40;;;;;;;21.75;17.02;;;;;;;10.17;84.67;99753.66;1651370;86;21684;-64
2021/04/14 01:00:13;;;;;;;27.35;19.62;;;;;;;10.16;84.77;99749.34;1678135;85;21502;-62
2021/04/14 01:02:41;;;;;;;27.27;18.10;;;;;;;10.12;84.64;99756.23;1679444;85;21226;-63
2021/04/14 01:05:13;;;;;;;27.93;16.50;;;;;;;10.04;84.77;99758.26;1662912;85;21628;-64
2021/04/14 01:07:43;;;;;;;25.88;18.67;;;;;;;10.00;84.80;99765.19;1649986;86;21395;-65
2021/04/14 01:10:13;;;;;;;23.70;18.42;;;;;;;9.95;84.91;99762.94;1654270;85;21036;-61
2021/04/14 01:12:43;;;;;;;21.45;15.68;;;;;;;9.87;85.14;99762.01;1670161;83;21439;-61
2021/04/14 01:15:15;;;;;;;22.82;16.20;;;;;;;9.85;85.31;99765.45;1668090;84;21260;-64
2021/04/14 01:17:45;;;;;;;27.70;18.85;;;;;;;9.85;85.32;99758.73;1669068;85;21180;-62
2021/04/14 01:20:14;;;;;;;22.27;17.02;;;;;;;9.85;85.30;99754.19;1668663;85;21629;-63
2021/04/14 01:22:42;;;;;;;23.18;18.15;;;;;;;9.86;85.31;99742.91;1668969;85;21170;-64
2021/04/14 01:25:11;;;;;;;26.07;16.85;;;;;;;9.90;85.24;99736.80;1658835;85;21806;-61
2021/04/14 01:27:39;;;;;;;24.20;17.55;;;;;;;9.96;85.11;99743.89;1639598;87;21116;-63
2021/04/14 01:30:18;;;;;;;20.48;17.27;;;;;;;9.99;84.92;99740.71;1639597;87;21239;-63
2021/04/14 01:32:47;;;;;;;23.10;16.37;;;;;;;10.00;84.82;99720.85;1670055;85;21212;-62
2021/04/14 01:35:14;;;;;;;20.35;16.45;;;;;;;10.05;84.85;99726.30;1639060;85;21672;-64
2021/04/14 01:37:42;;;;;;;22.85;16.75;;;;;;;10.07;84.59;99726.86;1651640;85;21227;-61
2021/04/14 01:40:11;;;;;;;21.95;17.75;;;;;;;10.06;84.49;99733.84;1639128;87;21191;-61
2021/04/14 01:42:39;;;;;;;23.98;16.90;;;;;;;10.06;84.34;99737.87;1639465;85;21160;-64
2021/04/14 01:45:10;;;;;;;19.37;16.50;;;;;;;10.03;84.28;99734.31;1646113;84;21368;-64
2021/04/14 01:47:38;;;;;;;16.42;13.58;;;;;;;10.01;84.24;99744.50;1665333;85;21077;-61
2021/04/14 01:50:08;;;;;;;19.37;14.68;;;;;;;10.02;84.30;99738.08;1672476;84;21178;-66
2021/04/14 01:52:36;;;;;;;19.87;16.17;;;;;;;10.01;84.08;99741.82;1669845;85;21178;-63
2021/04/14 01:55:05;;;;;;;22.70;15.72;;;;;;;9.96;84.09;99732.33;1671926;85;21193;-62
2021/04/14 01:57:33;;;;;;;25.95;17.57;;;;;;;9.94;84.21;99739.81;1670235;85;21226;-63
2021/04/14 02:00:15;;;;;;;23.95;18.52;;;;;;;9.87;84.31;99734.62;1660103;85;21236;-62
2021/04/14 02:02:43;;;;;;;19.80;15.48;;;;;;;9.80;84.73;99735.30;1644575;87;21078;-63
2021/04/14 02:05:12;;;;;;;24.92;17.77;;;;;;;9.73;85.05;99731.97;1671788;85;21172;-64
2021/04/14 02:07:40;;;;;;;19.65;17.25;;;;;;;9.72;85.37;99724.97;1670785;85;21193;-62
2021/04/14 02:10:11;;;;;;;30.35;21.30;;;;;;;9.75;85.40;99727.15;1667196;85;21659;-62
2021/04/14 02:12:38;;;;;;;21.17;16.30;;;;;;;9.73;85.28;99725.78;1668689;85;21161;-64
2021/04/14 02:15:11;;;;;;;20.12;16.00;;;;;;;9.69;85.27;99737.52;1668376;86;21144;-64
2021/04/14 02:17:38;;;;;;;22.62;17.55;;;;;;;9.60;85.28;99729.57;1645792;86;21126;-63
2021/04/14 02:20:08;;;;;;;20.70;16.45;;;;;;;9.51;85.54;99731.03;1652504;86;21162;-64
2021/04/14 02:22:37;;;;;;;24.35;16.73;;;;;;;9.48;85.84;99731.52;1619935;86;22274;-63
2021/04/14 02:25:07;;;;;;;27.82;19.42;;;;;;;9.47;85.70;99729.36;1637124;87;21090;-62
2021/04/14 02:27:34;;;;;;;29.70;18.92;;;;;;;9.43;85.69;99724.72;1620960;88;21666;-62
2021/04/14 02:30:06;;;;;;;36.05;21.35;;;;;;;9.38;85.44;99717.39;1647018;86;21169;-63
2021/04/14 02:32:34;;;;;;;35.88;19.67;;;;;;;9.36;85.41;99724.86;1657910;85;22218;-63
2021/04/14 02:35:03;;;;;;;28.35;18.27;;;;;;;9.38;85.13;99722.76;1669876;85;21383;-63
2021/04/14 02:37:31;;;;;;;35.43;21.02;;;;;;;9.40;84.86;99718.50;1669761;86;21239;-63
2021/04/14 02:39:59;;;;;;;29.25;20.02;;;;;;;9.40;84.39;99719.84;1669805;86;21185;-65
2021/04/14 02:42:26;;;;;;;25.77;18.95;;;;;;;9.37;83.79;99720.31;1649975;86;21621;-63
2021/04/14 02:44:54;;;;;;;26.68;15.53;;;;;;;9.34;83.70;99721.62;1638627;86;21158;-63
2021/04/14 02:47:22;;;;;;;22.50;14.35;;;;;;;9.29;83.46;99724.20;1637640;86;21415;-62
2021/04/14 02:49:50;;;;;;;19.65;15.45;;;;;;;9.23;83.38;99716.29;1638046;86;21189;-62
2021/04/14 02:52:17;;;;;;;19.30;14.40;;;;;;;9.24;83.26;99713.91;1647514;86;21617;-63
2021/04/14 02:54:45;;;;;;;18.95;15.45;;;;;;;9.25;82.92;99719.03;1637223;87;21169;-63
2021/04/14 02:57:12;;;;;;;18.40;14.87;;;;;;;9.19;82.76;99718.13;1637249;87;21594;-61
2021/04/14 02:59:40;;;;;;;22.45;15.03;;;;;;;9.15;82.61;99720.19;1641321;86;21402;-61
2021/04/14 03:02:09;;;;;;;23.07;15.20;;;;;;;9.11;82.61;99721.72;1663588;84;21182;-62
2021/04/14 03:04:37;;;;;;;18.95;16.07;;;;;;;9.07;82.58;99718.69;1669864;86;21627;-61
2021/04/14 03:07:05;;;;;;;17.50;13.78;;;;;;;9.06;82.54;99718.94;1669799;85;21709;-62
2021/04/14 03:09:33;;;;;;;25.68;15.38;;;;;;;9.08;82.56;99718.16;1649282;86;21165;-64
2021/04/14 03:12:04;;;;;;;21.42;16.67;;;;;;;9.12;82.30;99717.44;1640920;86;21221;-63
2021/04/14 03:14:31;;;;;;;19.80;16.10;;;;;;;9.07;82.08;99714.66;1638123;87;21232;-62
2021/04/14 03:17:00;;;;;;;21.50;16.45;;;;;;;9.05;81.93;99714.62;1638156;87;21641;-65
2021/04/14 03:19:28;;;;;;;30.32;18.57;;;;;;;9.01;81.84;99708.11;1638239;87;21630;-61
2021/04/14 03:21:56;;;;;;;24.40;18.10;;;;;;;9.01;81.71;99712.14;1669890;85;21240;-63
2021/04/14 03:24:23;;;;;;;26.35;18.25;;;;;;;9.02;81.50;99717.77;1670212;85;22172;-63
2021/04/14 03:26:51;;;;;;;20.32;15.58;;;;;;;9.03;81.23;99713.52;1670389;85;21153;-64
2021/04/14 03:29:19;;;;;;;26.40;17.82;;;;;;;9.04;80.73;99716.48;1670429;85;21585;-64
2021/04/14 03:31:46;;;;;;;18.95;15.88;;;;;;;9.01;80.42;99716.98;1669814;85;21232;-70
2021/04/14 03:34:14;;;;;;;22.70;15.93;;;;;;;9.00;80.18;99712.66;1643363;87;21249;-65
2021/04/14 03:36:43;;;;;;;18.92;14.23;;;;;;;9.01;79.95;99716.98;1658220;86;21275;-63
2021/04/14 03:39:11;;;;;;;21.62;14.45;;;;;;;9.02;79.42;99714.56;1642078;87;21201;-65
2021/04/14 03:41:39;;;;;;;17.73;13.58;;;;;;;9.00;79.05;99715.86;1670388;85;21176;-64
2021/04/14 03:44:07;;;;;;;21.52;15.68;;;;;;;8.99;79.00;99727.12;1670393;85;21686;-63
2021/04/14 03:46:35;;;;;;;18.82;14.70;;;;;;;9.02;78.83;99740.04;1670833;85;21251;-63
2021/04/14 03:49:03;;;;;;;25.68;15.58;;;;;;;9.03;78.46;99740.86;1670758;85;21379;-63
2021/04/14 03:51:33;;;;;;;19.35;15.98;;;;;;;9.00;78.50;99740.01;1674596;84;21582;-65
2021/04/14 03:54:01;;;;;;;21.60;15.98;;;;;;;9.05;78.58;99730.72;1669667;85;22306;-64
2021/04/14 03:56:29;;;;;;;30.27;19.48;;;;;;;9.12;78.38;99735.41;1649397;87;21676;-62
2021/04/14 03:58:56;;;;;;;22.65;18.42;;;;;;;9.16;78.22;99736.02;1670350;85;21196;-63
2021/04/14 04:01:27;;;;;;;21.12;17.40;;;;;;;9.21;77.94;99741.23;1629917;87;22186;-63
2021/04/14 04:03:56;;;;;;;27.10;17.85;;;;;;;9.17;77.76;99738.19;1645572;87;21065;-62
2021/04/14 04:06:25;;;;;;;27.58;18.52;;;;;;;9.17;77.86;99747.05;1645506;87;21176;-63
2021/04/14 04:08:54;;;;;;;21.77;14.87;;;;;;;9.20;78.00;99739.06;1637777;85;21229;-63
2021/04/14 04:11:22;;;;;;;23.92;16.67;;;;;;;9.21;77.88;99738.55;1675751;84;21160;-64
2021/04/14 04:13:52;;;;;;;21.12;16.32;;;;;;;9.21;77.97;99737.98;1685437;84;21208;-63
2021/04/14 04:16:20;;;;;;;24.18;15.88;;;;;;;9.27;77.80;99740.24;1714816;83;21198;-62
2021/04/14 04:18:52;;;;;;;21.48;16.02;;;;;;;9.32;77.74;99733.63;1687721;84;21099;-62
2021/04/14 04:21:20;;;;;;;19.30;15.15;;;;;;;9.33;77.47;99730.72;1688846;83;21619;-63
2021/04/14 04:23:50;;;;;;;19.15;16.37;;;;;;;9.33;77.09;99729.38;1668164;86;21663;-62
2021/04/14 04:26:19;;;;;;;15.48;12.23;;;;;;;9.36;77.13;99728.88;1668043;86;21158;-63
2021/04/14 04:28:47;;;;;;;19.42;15.68;;;;;;;9.40;76.90;99730.02;1661752;86;21207;-63
2021/04/14 04:31:14;;;;;;;19.37;14.75;;;;;;;9.36;76.64;99727.54;1717599;83;21516;-63
2021/04/14 04:33:42;;;;;;;21.40;13.48;;;;;;;9.35;76.65;99728.59;1719113;83;21169;-61
2021/04/14 04:36:10;;;;;;;17.98;14.10;;;;;;;9.35;76.70;99728.59;1718987;83;21203;-61
2021/04/14 04:38:38;;;;;;;20.43;16.12;;;;;;;9.40;76.48;99731.92;1719322;83;21511;-62
2021/04/14 04:41:05;;;;;;;23.10;13.30;;;;;;;9.40;76.29;99739.42;1719693;83;21157;-64
2021/04/14 04:43:33;;;;;;;16.52;14.03;;;;;;;9.42;76.09;99731.95;1722257;83;21334;-63
2021/04/14 04:46:01;;;;;;;18.17;12.70;;;;;;;9.39;75.97;99745.87;1722233;83;21578;-63
2021/04/14 04:48:28;;;;;;;22.37;13.35;;;;;;;9.39;76.08;99747.20;1722284;83;21602;-62
2021/04/14 04:50:56;;;;;;;19.23;13.50;;;;;;;9.37;75.98;99745.80;1719538;83;21825;-62
2021/04/14 04:53:24;;;;;;;23.32;14.50;;;;;;;9.32;76.26;99741.16;1719115;83;21181;-64
2021/04/14 04:55:52;;;;;;;17.98;12.93;;;;;;;9.27;76.58;99741.06;1719163;83;21583;-62
2021/04/14 04:58:20;;;;;;;18.10;14.30;;;;;;;9.27;76.49;99742.92;1719275;83;21622;-63
2021/04/14 05:00:48;;;;;;;21.77;12.70;;;;;;;9.31;76.39;99748.92;1719424;83;21140;-64
2021/04/14 05:03:16;;;;;;;17.40;12.93;;;;;;;9.34;76.17;99745.77;1722068;83;22025;-62
2021/04/14 05:05:45;;;;;;;15.45;13.03;;;;;;;9.32;76.00;99748.39;1722238;83;21023;-63
2021/04/14 05:08:12;;;;;;;20.17;16.32;;;;;;;9.33;76.12;99749.50;1722219;83;21133;-62
2021/04/14 05:10:40;;;;;;;17.17;13.95;;;;;;;9.33;75.75;99755.40;1721972;83;21184;-62
2021/04/14 05:13:09;;;;;;;15.45;10.90;;;;;;;9.31;75.82;99754.81;1722108;83;21252;-64
2021/04/14 05:15:39;;;;;;;20.40;14.55;;;;;;;9.32;75.86;99749.73;1726146;83;21403;-63
2021/04/14 05:18:08;;;;;;;17.37;14.00;;;;;;;9.37;75.76;99748.48;1722440;83;21148;-64
2021/04/14 05:20:36;;;;;;;18.82;13.70;;;;;;;9.40;75.51;99745.34;1720840;83;20999;-64
2021/04/14 05:23:04;;;;;;;15.65;12.60;;;;;;;9.40;75.10;99752.05;1719147;83;21193;-63
2021/04/14 05:25:34;;;;;;;14.87;12.85;;;;;;;9.42;74.89;99760.66;1719072;83;21184;-66
2021/04/14 05:28:05;;;;;;;14.33;12.73;;;;;;;9.47;74.85;99751.36;1719116;83;21336;-63
2021/04/14 05:30:32;;;;;;;18.55;12.75;;;;;;;9.52;74.68;99755.48;1718983;83;21034;-62
2021/04/14 05:33:01;;;;;;;18.25;14.13;;;;;;;9.55;74.34;99754.47;1721873;83;21003;-63
2021/04/14 05:35:28;;;;;;;20.32;16.07;;;;;;;9.53;73.99;99753.91;1722172;83;21184;-63
2021/04/14 05:37:56;;;;;;;24.85;14.98;;;;;;;9.50;73.99;99752.21;1722189;83;21320;-62
2021/04/14 05:40:23;;;;;;;13.83;12.07;;;;;;;9.52;73.96;99750.11;1720547;83;21894;-64
2021/04/14 05:42:52;;;;;;;25.52;16.48;;;;;;;9.57;73.64;99758.26;1719043;83;21149;-61
2021/04/14 05:45:24;;;;;;;19.73;14.95;;;;;;;9.62;73.44;99751.12;1719214;83;21062;-62
2021/04/14 05:47:52;;;;;;;26.43;17.90;;;;;;;9.70;73.11;99749.89;1719413;83;21114;-62
2021/04/14 05:50:23;;;;;;;19.67;15.60;;;;;;;9.79;73.08;99749.77;1719046;83;21160;-64
2021/04/14 05:52:51;;;;;;;23.07;15.38;;;;;;;9.82;72.22;99751.17;1719040;83;21357;-64
2021/04/14 05:55:20;;;;;;;20.77;12.78;;;;;;;9.86;72.11;99747.76;1719949;83;21026;-63
2021/04/14 05:57:47;;;;;;;22.10;16.73;;;;;;;9.94;71.50;99753.24;1722149;83;21145;-64
2021/04/14 06:00:17;;;;;;;21.73;13.90;;;;;;;9.97;71.19;99744.72;1719903;83;21666;-62
2021/04/14 06:02:44;;;;;;;18.12;14.73;;;;;;;10.00;71.08;99747.72;1719093;83;21216;-64
2021/04/14 06:05:18;;;;;;;21.12;16.48;;;;;;;10.04;71.12;99749.37;1719024;83;21093;-62
2021/04/14 06:07:48;;;;;;;23.07;14.45;;;;;;;10.05;70.98;99749.14;1719199;83;21591;-64
2021/04/14 06:10:21;;;;;;;18.15;15.08;;;;;;;10.06;70.97;99751.30;1719073;83;21232;-64
2021/04/14 06:12:53;;;;;;;28.87;15.40;;;;;;;10.08;70.74;99745.14;1719422;83;21149;-63
2021/04/14 06:15:31;;;;;;;20.45;14.83;;;;;;;10.09;70.64;99752.15;1719222;83;22127;-65
2021/04/14 06:18:01;;;;;;;22.40;13.38;;;;;;;10.10;70.07;99752.97;1719241;83;21002;-63
2021/04/14 06:20:31;;;;;;;20.75;13.20;;;;;;;10.14;70.08;99749.54;1719026;83;21181;-65
2021/04/14 06:23:00;;;;;;;18.50;16.42;;;;;;;10.18;69.77;99749.36;1719634;83;21609;-63
2021/04/14 06:25:33;;;;;;;17.40;15.20;;;;;;;10.20;70.00;99749.13;1722172;83;21632;-64
2021/04/14 06:28:03;;;;;;;28.02;15.98;;;;;;;10.20;70.23;99740.53;1722085;83;21633;-63
2021/04/14 06:30:27;;;;;;;29.90;17.30;;;;;;;10.24;70.35;99742.20;1722093;83;22120;-63
2021/04/14 06:32:57;;;;;;;19.77;14.33;;;;;;;10.25;70.33;99742.48;1719974;83;21156;-73
2021/04/14 06:35:24;;;;;;;19.98;15.23;;;;;;;10.26;70.37;99746.80;1719146;83;21165;-63
2021/04/14 06:37:52;;;;;;;23.07;17.17;;;;;;;10.28;70.51;99744.67;1719143;83;21590;-64
2021/04/14 06:43:05;;;;;;;21.33;16.80;;;;;;;10.34;70.49;99749.89;1719160;83;22126;-65
2021/04/14 06:45:34;;;;;;;19.55;14.90;;;;;;;10.37;70.09;99748.56;1718860;83;21042;-65
2021/04/14 06:48:20;;;;;;;15.10;11.60;;;;;;;10.40;69.90;99748.91;1694974;83;21212;-63
2021/04/14 06:51:17;;;;;;;18.05;14.83;;;;;;;10.48;69.39;99750.34;1719133;83;21161;-64
2021/04/14 06:54:17;;;;;;;21.35;13.65;;;;;;;10.49;69.28;99747.95;1719041;83;21185;-64
2021/04/14 06:56:45;;;;;;;19.37;14.47;;;;;;;10.54;69.52;99743.98;1719368;83;22643;-62
2021/04/14 06:59:19;;;;;;;24.25;15.83;;;;;;;10.57;69.17;99746.16;1722154;83;21674;-65
2021/04/14 07:01:51;;;;;;;20.17;15.98;;;;;;;10.59;68.46;99741.36;1722271;83;21224;-63
2021/04/14 07:04:24;;;;;;;17.17;12.73;;;;;;;10.62;67.84;99742.20;1702154;83;21153;-62
2021/04/14 07:06:52;;;;;;;;;;;;;;;10.69;66.37;99744.72;1721627;83;21161;-64
2021/04/14 07:09:36;;;;;;;26.95;14.98;;;;;;;10.73;65.95;99739.94;1719032;83;21429;-62
2021/04/14 07:12:09;;;;;;;20.72;14.70;;;;;;;10.78;65.90;99737.31;1718874;83;21069;-66
2021/04/14 07:14:39;;;;;;;17.67;13.88;;;;;;;10.84;65.14;99734.13;1697481;83;21635;-63
2021/04/14 07:17:21;;;;;;;22.42;15.45;;;;;;;10.84;64.85;99744.89;1711495;82;22531;-64
2021/04/14 07:20:00;;;;;;;16.45;12.73;;;;;;;10.88;65.22;99751.42;1678647;85;21140;-62
2021/04/14 07:22:57;;;;;;;21.82;15.23;;;;;;;10.93;64.67;99753.62;1680570;85;22373;-62
2021/04/14 07:25:47;;;;;;;18.80;13.50;;;;;;;10.94;64.61;99750.41;1644819;86;21129;-62
2021/04/14 07:28:36;;;;;;;20.45;15.75;;;;;;;11.04;64.62;99747.84;1687467;84;21059;-64
2021/04/14 07:31:14;;;;;;;18.73;15.25;;;;;;;11.15;64.16;99746.08;1673108;85;21364;-63
2021/04/14 07:34:17;;;;;;;27.22;15.55;;;;;;;11.24;63.90;99749.42;1687439;85;21165;-65
2021/04/14 07:37:14;;;;;;;18.65;13.38;;;;;;;11.24;63.06;99748.61;1690172;84;21428;-65
2021/04/14 07:40:12;;;;;;;19.62;13.83;;;;;;;11.27;62.67;99744.87;1690027;84;21196;-66
2021/04/14 07:42:55;;;;;;;22.65;14.78;;;;;;;11.33;62.49;99751.13;1693330;84;21622;-63
2021/04/14 07:45:34;;;;;;;21.65;14.47;;;;;;;11.35;62.33;99750.34;1678119;85;21187;-63
2021/04/14 07:48:11;;;;;;;16.05;13.30;;;;;;;11.36;62.37;99749.29;1687460;85;21197;-64
2021/04/14 07:50:53;;;;;;;18.25;13.88;;;;;;;11.43;62.63;99756.62;1696828;84;21292;-64
2021/04/14 07:53:31;;;;;;;17.27;14.07;;;;;;;11.56;62.03;99748.69;1678000;85;21077;-64
2021/04/14 07:56:19;;;;;;;19.35;14.33;;;;;;;11.68;62.00;99754.72;1686878;85;21216;-64
2021/04/14 07:58:54;;;;;;;24.77;16.90;;;;;;;11.79;61.46;99748.39;1689039;84;21164;-78
2021/04/14 08:01:26;;;;;;;18.82;15.65;;;;;;;11.86;60.23;99750.85;1662003;85;21168;-62
2021/04/14 08:04:19;;;;;;;20.40;16.12;;;;;;;11.88;60.05;99754.94;1687546;85;21372;-64
2021/04/14 08:06:49;;;;;;;18.37;13.78;;;;;;;11.92;59.65;99749.84;1658121;86;21236;-64
2021/04/14 08:09:20;;;;;;;20.27;15.98;;;;;;;11.92;59.28;99753.34;1679649;84;21200;-64
2021/04/14 08:11:49;;;;;;;15.53;13.53;;;;;;;11.98;59.34;99758.25;1690888;84;21157;-65
2021/04/14 08:14:32;;;;;;;22.98;16.30;;;;;;;12.07;59.10;99754.01;1677439;84;21643;-64
2021/04/14 08:17:02;;;;;;;18.98;14.23;;;;;;;12.12;59.10;99752.17;1669755;85;21225;-64
2021/04/14 08:19:35;;;;;;;21.73;17.48;;;;;;;12.16;58.49;99760.55;1670004;85;21057;-66
2021/04/14 08:22:14;;;;;;;30.65;19.62;;;;;;;12.14;58.36;99754.05;1685847;84;21081;-64
2021/04/14 08:24:55;;;;;;;20.77;17.15;;;;;;;12.16;58.20;99744.37;1682663;84;21136;-65
2021/04/14 08:27:41;;;;;;;24.65;14.85;;;;;;;12.23;57.01;99747.64;1675151;84;21648;-63
2021/04/14 08:30:13;;;;;;;18.98;14.60;;;;;;;12.30;53.84;99742.84;1663453;86;22221;-62
2021/04/14 08:32:48;;;;;;;19.75;15.30;;;;;;;12.33;53.76;99741.50;1678246;84;25007;-63
2021/04/14 08:35:42;;;;;;;18.12;14.10;;;;;;;12.38;53.74;99738.30;1658318;86;21173;-65
2021/04/14 08:38:26;;;;;;;;;;;;;;;12.40;52.20;99737.52;1681468;85;21163;-63
2021/04/14 08:40:57;;;;;;;19.30;15.75;;;;;;;12.43;52.21;99726.73;1662183;85;20283;-64
2021/04/14 08:43:39;;;;;;;18.55;14.13;;;;;;;12.52;51.74;99731.91;1665059;86;22341;-64
2021/04/14 08:46:36;;;;;;;17.70;13.98;;;;;;;12.56;50.45;99720.36;1680182;84;22219;-66
2021/04/14 08:49:22;;;;;;;24.63;15.20;;;;;;;12.65;49.69;99724.72;1656951;85;21157;-65
2021/04/14 08:51:52;;;;;;;17.30;12.60;;;;;;;12.73;48.77;99715.30;1698269;84;21191;-62
2021/04/14 08:54:27;;;;;;;20.02;13.95;;;;;;;12.74;47.85;99719.09;1698481;84;21152;-63
2021/04/14 08:56:55;;;;;;;17.30;13.62;;;;;;;12.77;48.63;99717.73;1697744;84;22103;-64
2021/04/14 08:59:23;;;;;;;19.40;13.53;;;;;;;12.82;48.96;99706.42;1681827;84;21203;-64
2021/04/14 09:01:51;;;;;;;21.07;13.83;;;;;;;12.84;49.77;99696.19;1675090;85;21642;-66
2021/04/14 09:04:19;;;;;;;19.52;13.95;;;;;;;12.88;50.26;99697.28;1698241;84;21164;-62
2021/04/14 09:06:48;;;;;;;17.80;14.75;;;;;;;12.90;50.45;99695.68;1653872;84;21220;-63
2021/04/14 09:09:20;;;;;;;22.25;14.15;;;;;;;12.96;50.53;99696.76;1696277;83;21202;-63
2021/04/14 09:12:06;;;;;;;20.23;14.05;;;;;;;13.03;50.46;99687.89;1663446;86;28448;-62
2021/04/14 09:14:34;;;;;;;21.55;14.98;;;;;;;13.13;50.64;99685.78;1663195;86;21228;-63
2021/04/14 09:17:19;;;;;;;19.12;12.50;;;;;;;13.24;50.41;99692.81;1663395;86;21582;-65
2021/04/14 09:19:50;;;;;;;16.77;12.23;;;;;;;13.30;50.41;99685.53;1664359;84;21598;-64
2021/04/14 09:22:28;;;;;;;24.27;12.65;;;;;;;13.40;50.82;99685.55;1663156;86;21643;-62
2021/04/14 09:25:04;;;;;;;22.48;15.50;;;;;;;13.52;50.53;99682.85;1654417;85;21250;-63
2021/04/14 09:27:51;;;;;;;19.55;14.15;;;;;;;13.65;50.60;99679.36;1689769;84;21172;-63
2021/04/14 09:30:40;;;;;;;19.73;13.58;;;;;;;13.77;50.55;99683.41;1670461;84;21007;-70
2021/04/14 09:33:14;;;;;;;17.73;13.78;;;;;;;13.93;49.77;99672.86;1676275;85;21116;-65
2021/04/14 09:35:55;;;;;;;23.07;12.82;;;;;;;14.08;49.57;99669.33;1668738;85;21167;-64
2021/04/14 09:38:34;;;;;;;19.42;14.23;;;;;;;14.23;48.94;99661.73;1661801;86;21450;-64
2021/04/14 09:41:16;;;;;;;22.40;13.25;;;;;;;14.33;49.27;99660.35;1689506;84;21612;-64
2021/04/14 09:43:45;;;;;;;26.82;14.87;;;;;;;14.48;49.09;99644.64;1676212;84;21214;-62
2021/04/14 09:46:34;;;;;;;17.60;13.18;;;;;;;14.65;48.61;99648.63;1655079;84;21651;-63
2021/04/14 09:49:16;;;;;;;17.87;12.43;;;;;;;14.79;47.86;99651.53;1672551;85;21034;-64
2021/04/14 09:51:56;;;;;;;14.65;11.45;;;;;;;14.89;47.74;99650.13;1681673;84;21102;-62
2021/04/14 09:54:30;;;;;;;21.93;14.53;;;;;;;14.98;47.63;99645.74;1687612;84;21042;-66
2021/04/14 09:57:02;;;;;;;19.20;14.33;;;;;;;15.09;47.78;99641.08;1690643;84;21625;-68
2021/04/14 09:59:37;;;;;;;18.12;14.73;;;;;;;15.21;47.52;99631.50;1691111;84;21212;-67
2021/04/14 10:02:18;;;;;;;21.95;16.48;;;;;;;15.38;47.32;99631.12;1695938;84;21200;-69
2021/04/14 10:04:47;;;;;;;19.60;13.68;;;;;;;15.54;46.69;99631.28;1691313;84;21149;-67
2021/04/14 10:07:25;;;;;;;19.12;14.83;;;;;;;15.61;46.23;99619.58;1690354;84;21618;-65
2021/04/14 10:10:12;;;;;;;22.65;14.98;;;;;;;15.63;46.31;99626.08;1691513;84;21165;-66
2021/04/14 10:12:40;;;;;;;19.23;14.40;;;;;;;15.65;46.03;99621.98;1671869;84;21610;-62
2021/04/14 10:15:11;;;;;;;20.52;13.10;;;;;;;15.70;45.76;99621.94;1686618;84;21038;-64
2021/04/14 10:17:40;;;;;;;16.87;12.53;;;;;;;15.81;45.76;99608.28;1687361;85;21637;-64
2021/04/14 10:20:25;;;;;;;15.72;11.57;;;;;;;15.95;45.44;99597.84;1688713;85;21015;-65
2021/04/14 10:22:52;;;;;;;18.00;11.73;;;;;;;16.09;44.61;99608.81;1688981;85;22299;-66
2021/04/14 10:25:34;;;;;;;18.20;12.45;;;;;;;16.21;44.87;99613.84;1687381;85;21058;-66
2021/04/14 10:28:06;;;;;;;14.15;10.95;;;;;;;16.29;44.22;99605.06;1684399;84;22409;-67
2021/04/14 10:30:38;;;;;;;12.00;9.83;;;;;;;16.37;44.19;99601.70;1684540;85;21593;-65
2021/04/14 10:33:19;;;;;;;15.30;9.80;;;;;;;16.44;43.92;99600.27;1672921;85;21182;-68
2021/04/14 10:35:49;;;;;;;13.25;8.05;;;;;;;16.49;42.79;99593.42;1664583;85;21153;-64
2021/04/14 10:38:29;;;;;;;20.68;8.50;;;;;;;16.46;42.55;99587.73;1676715;85;21282;-64
2021/04/14 10:40:58;;;;;;;15.35;7.92;;;;;;;16.40;42.75;99595.70;1676693;85;21252;-65
2021/04/14 10:43:27;;;;;;;13.65;8.98;;;;;;;16.45;42.92;99588.28;1676773;85;21197;-64
2021/04/14 10:46:05;;;;;;;10.82;7.83;;;;;;;16.54;42.50;99592.55;1676602;85;21165;-67
2021/04/14 10:48:35;;;;;;;18.30;9.18;;;;;;;16.61;42.40;99583.50;1676678;85;21655;-68
2021/04/14 10:51:25;;;;;;;18.73;8.90;;;;;;;16.65;42.32;99587.80;1655558;85;21158;-67
2021/04/14 10:53:56;;;;;;;10.53;7.42;;;;;;;16.73;42.01;99588.52;1671204;85;22014;-71
2021/04/14 10:56:27;;;;;;;11.80;6.67;;;;;;;16.82;41.37;99589.47;1688538;85;21184;-71
2021/04/14 10:58:55;;;;;;;8.13;6.87;;;;;;;16.82;40.99;99585.41;1688759;85;21181;-70
2021/04/14 11:01:44;;;;;;;18.07;8.00;;;;;;;16.82;40.83;99584.86;1688700;85;21136;-66
2021/04/14 11:04:29;;;;;;;11.70;6.83;;;;;;;16.87;40.74;99591.58;1686244;85;21133;-68
2021/04/14 11:07:08;;;;;;;16.67;8.23;;;;;;;16.94;39.91;99595.27;1684251;84;21248;-64
2021/04/14 11:09:41;;;;;;;15.83;8.80;;;;;;;16.90;40.58;99575.22;1684388;85;21626;-66
2021/04/14 11:12:18;;;;;;;14.47;8.50;;;;;;;16.91;40.51;99589.07;1684404;85;27850;-66
2021/04/14 11:15:01;;;;;;;17.35;8.05;;;;;;;16.93;40.97;99577.34;1868755;76;23346;-67
2021/04/14 11:17:31;;;;;;;11.88;7.70;;;;;;;16.87;41.06;99583.42;1836199;77;21614;-64
2021/04/14 11:20:06;;;;;;;12.63;7.20;;;;;;;16.85;40.88;99582.09;1837229;77;22047;-63
2021/04/14 11:22:48;;;;;;;16.65;8.68;;;;;;;16.76;41.22;99585.20;1826273;78;21603;-62
2021/04/14 11:25:33;;;;;;;11.43;6.95;;;;;;;16.72;41.22;99576.84;1826289;78;21153;-66
2021/04/14 11:28:06;;;;;;;13.43;7.20;;;;;;;16.68;41.15;99577.17;1817632;78;21622;-64
2021/04/14 11:30:56;;;;;;;9.40;7.28;;;;;;;16.62;41.46;99576.17;1826993;77;21573;-65
2021/04/14 11:33:40;;;;;;;15.98;7.53;;;;;;;16.61;41.68;99577.27;1821250;77;21246;-63
2021/04/14 11:36:29;;;;;;;10.28;6.83;;;;;;;16.65;41.35;99576.38;1819693;78;21007;-66
2021/04/14 11:39:18;;;;;;;10.75;7.87;;;;;;;16.64;41.16;99566.65;1778209;80;21058;-65
2021/04/14 11:41:48;;;;;;;11.83;7.70;;;;;;;16.64;41.00;99566.65;1782925;80;21176;-64
2021/04/14 11:44:27;;;;;;;12.70;7.42;;;;;;;16.66;41.24;99564.42;1789771;80;21026;-66
2021/04/14 11:46:58;;;;;;;10.23;7.95;;;;;;;16.68;41.17;99560.07;1789951;80;22129;-65
2021/04/14 11:49:36;;;;;;;7.50;6.62;;;;;;;16.72;40.90;99563.81;1786971;79;21188;-65